sensor_id;sensor_type;location;lat;lon;timestamp;P1;durP1;ratioP1;P2;durP2;ratioP2
2400;SDS011;1211;43.200;27.914;2022-08-02T00:02:06;1.83;;;1.47;;
2400;SDS011;1211;43.200;27.914;2022-08-02T00:04:32;1.27;;;1.03;;
2400;SDS011;1211;43.200;27.914;2022-08-02T00:07:01;2.13;;;1.93;;
2400;SDS011;1211;43.200;27.914;2022-08-02T00:09:27;1.67;;;1.53;;
2400;SDS011;1211;43.200;27.914;2022-08-02T00:11:54;2.60;;;2.10;;
2400;SDS011;1211;43.200;27.914;2022-08-02T00:14:21;1.30;;;1.20;;
2400;SDS011;1211;43.200;27.914;2022-08-02T00:16:48;3.00;;;2.80;;
2400;SDS011;1211;43.200;27.914;2022-08-02T00:19:15;1.70;;;1.50;;
2400;SDS011;1211;43.200;27.914;2022-08-02T00:21:42;1.30;;;1.13;;
2400;SDS011;1211;43.200;27.914;2022-08-02T00:24:10;1.43;;;1.33;;
2400;SDS011;1211;43.200;27.914;2022-08-02T00:26:37;2.30;;;1.60;;
2400;SDS011;1211;43.200;27.914;2022-08-02T00:29:04;2.20;;;1.83;;
2400;SDS011;1211;43.200;27.914;2022-08-02T00:31:31;1.20;;;0.90;;
2400;SDS011;1211;43.200;27.914;2022-08-02T00:33:58;1.90;;;1.70;;
2400;SDS011;1211;43.200;27.914;2022-08-02T00:36:25;1.47;;;1.10;;
2400;SDS011;1211;43.200;27.914;2022-08-02T00:38:52;1.60;;;1.30;;
2400;SDS011;1211;43.200;27.914;2022-08-02T00:41:20;1.67;;;1.50;;
2400;SDS011;1211;43.200;27.914;2022-08-02T00:43:48;1.30;;;1.10;;
2400;SDS011;1211;43.200;27.914;2022-08-02T00:46:17;1.53;;;1.43;;
2400;SDS011;1211;43.200;27.914;2022-08-02T00:48:45;1.53;;;1.43;;
2400;SDS011;1211;43.200;27.914;2022-08-02T00:51:12;1.20;;;0.90;;
2400;SDS011;1211;43.200;27.914;2022-08-02T00:53:40;1.50;;;1.40;;
2400;SDS011;1211;43.200;27.914;2022-08-02T00:56:07;2.03;;;1.83;;
2400;SDS011;1211;43.200;27.914;2022-08-02T00:58:35;1.30;;;1.07;;
2400;SDS011;1211;43.200;27.914;2022-08-02T01:01:02;1.30;;;1.00;;
2400;SDS011;1211;43.200;27.914;2022-08-02T01:03:29;1.20;;;0.90;;
2400;SDS011;1211;43.200;27.914;2022-08-02T01:05:56;1.20;;;0.90;;
2400;SDS011;1211;43.200;27.914;2022-08-02T01:08:22;1.30;;;1.17;;
2400;SDS011;1211;43.200;27.914;2022-08-02T01:10:49;1.20;;;0.90;;
2400;SDS011;1211;43.200;27.914;2022-08-02T01:13:16;1.30;;;1.20;;
2400;SDS011;1211;43.200;27.914;2022-08-02T01:15:46;1.30;;;1.10;;
2400;SDS011;1211;43.200;27.914;2022-08-02T01:18:22;1.30;;;1.00;;
2400;SDS011;1211;43.200;27.914;2022-08-02T01:21:15;1.30;;;1.00;;
2400;SDS011;1211;43.200;27.914;2022-08-02T01:26:54;1.70;;;1.60;;
2400;SDS011;1211;43.200;27.914;2022-08-02T01:29:32;1.60;;;1.30;;
2400;SDS011;1211;43.200;27.914;2022-08-02T01:32:04;1.30;;;1.00;;
2400;SDS011;1211;43.200;27.914;2022-08-02T01:34:34;1.73;;;1.63;;
2400;SDS011;1211;43.200;27.914;2022-08-02T01:37:06;1.87;;;1.27;;
2400;SDS011;1211;43.200;27.914;2022-08-02T01:39:37;1.20;;;0.90;;
2400;SDS011;1211;43.200;27.914;2022-08-02T01:42:06;1.20;;;0.90;;
2400;SDS011;1211;43.200;27.914;2022-08-02T01:44:35;1.40;;;1.20;;
2400;SDS011;1211;43.200;27.914;2022-08-02T01:47:06;1.30;;;1.00;;
2400;SDS011;1211;43.200;27.914;2022-08-02T01:49:39;1.20;;;0.90;;
2400;SDS011;1211;43.200;27.914;2022-08-02T01:52:08;1.40;;;1.30;;
2400;SDS011;1211;43.200;27.914;2022-08-02T01:54:50;1.53;;;1.43;;
2400;SDS011;1211;43.200;27.914;2022-08-02T01:57:22;2.17;;;1.80;;
2400;SDS011;1211;43.200;27.914;2022-08-02T01:59:53;1.40;;;1.30;;
2400;SDS011;1211;43.200;27.914;2022-08-02T02:02:24;1.40;;;1.30;;
2400;SDS011;1211;43.200;27.914;2022-08-02T02:04:54;1.73;;;1.63;;
2400;SDS011;1211;43.200;27.914;2022-08-02T02:07:23;2.57;;;2.00;;
2400;SDS011;1211;43.200;27.914;2022-08-02T02:09:50;2.30;;;2.10;;
2400;SDS011;1211;43.200;27.914;2022-08-02T02:12:20;1.30;;;1.10;;
2400;SDS011;1211;43.200;27.914;2022-08-02T02:14:49;2.03;;;1.83;;
2400;SDS011;1211;43.200;27.914;2022-08-02T02:17:19;1.70;;;1.60;;
2400;SDS011;1211;43.200;27.914;2022-08-02T02:19:47;1.67;;;1.57;;
2400;SDS011;1211;43.200;27.914;2022-08-02T02:22:16;1.70;;;1.60;;
2400;SDS011;1211;43.200;27.914;2022-08-02T02:24:43;1.60;;;1.30;;
2400;SDS011;1211;43.200;27.914;2022-08-02T02:27:10;2.13;;;1.33;;
2400;SDS011;1211;43.200;27.914;2022-08-02T02:29:42;1.30;;;1.10;;
2400;SDS011;1211;43.200;27.914;2022-08-02T02:32:12;1.30;;;1.00;;
2400;SDS011;1211;43.200;27.914;2022-08-02T02:34:44;1.50;;;1.10;;
2400;SDS011;1211;43.200;27.914;2022-08-02T02:37:16;2.80;;;2.60;;
2400;SDS011;1211;43.200;27.914;2022-08-02T02:39:45;2.63;;;1.43;;
2400;SDS011;1211;43.200;27.914;2022-08-02T02:42:15;2.13;;;1.90;;
2400;SDS011;1211;43.200;27.914;2022-08-02T02:44:44;3.50;;;2.50;;
2400;SDS011;1211;43.200;27.914;2022-08-02T02:47:13;2.97;;;2.67;;
2400;SDS011;1211;43.200;27.914;2022-08-02T02:49:43;1.30;;;1.00;;
2400;SDS011;1211;43.200;27.914;2022-08-02T02:52:13;2.33;;;1.83;;
2400;SDS011;1211;43.200;27.914;2022-08-02T02:54:41;2.40;;;2.20;;
2400;SDS011;1211;43.200;27.914;2022-08-02T02:57:10;2.53;;;2.13;;
2400;SDS011;1211;43.200;27.914;2022-08-02T02:59:38;1.70;;;1.50;;
2400;SDS011;1211;43.200;27.914;2022-08-02T03:02:05;1.30;;;1.10;;
2400;SDS011;1211;43.200;27.914;2022-08-02T03:04:34;1.30;;;1.20;;
2400;SDS011;1211;43.200;27.914;2022-08-02T03:07:04;2.57;;;2.37;;
2400;SDS011;1211;43.200;27.914;2022-08-02T03:09:31;4.17;;;3.30;;
2400;SDS011;1211;43.200;27.914;2022-08-02T03:11:58;1.50;;;1.40;;
2400;SDS011;1211;43.200;27.914;2022-08-02T03:14:25;3.30;;;2.10;;
2400;SDS011;1211;43.200;27.914;2022-08-02T03:16:52;2.30;;;2.10;;
2400;SDS011;1211;43.200;27.914;2022-08-02T03:19:20;1.60;;;1.47;;
2400;SDS011;1211;43.200;27.914;2022-08-02T03:21:48;3.07;;;2.70;;
2400;SDS011;1211;43.200;27.914;2022-08-02T03:24:17;5.47;;;3.23;;
2400;SDS011;1211;43.200;27.914;2022-08-02T03:26:44;3.97;;;3.57;;
2400;SDS011;1211;43.200;27.914;2022-08-02T03:29:11;2.73;;;2.53;;
2400;SDS011;1211;43.200;27.914;2022-08-02T03:31:38;5.30;;;4.03;;
2400;SDS011;1211;43.200;27.914;2022-08-02T03:34:07;2.40;;;2.20;;
2400;SDS011;1211;43.200;27.914;2022-08-02T03:36:34;2.77;;;2.10;;
2400;SDS011;1211;43.200;27.914;2022-08-02T03:39:02;2.00;;;1.80;;
2400;SDS011;1211;43.200;27.914;2022-08-02T03:41:31;2.10;;;1.90;;
2400;SDS011;1211;43.200;27.914;2022-08-02T03:44:00;2.07;;;1.87;;
2400;SDS011;1211;43.200;27.914;2022-08-02T03:46:29;3.90;;;2.20;;
2400;SDS011;1211;43.200;27.914;2022-08-02T03:48:58;2.20;;;2.00;;
2400;SDS011;1211;43.200;27.914;2022-08-02T03:51:25;3.10;;;2.83;;
2400;SDS011;1211;43.200;27.914;2022-08-02T03:53:53;2.50;;;2.30;;
2400;SDS011;1211;43.200;27.914;2022-08-02T03:56:20;3.40;;;3.10;;
2400;SDS011;1211;43.200;27.914;2022-08-02T03:58:48;4.93;;;3.90;;
2400;SDS011;1211;43.200;27.914;2022-08-02T04:01:15;1.90;;;1.60;;
2400;SDS011;1211;43.200;27.914;2022-08-02T04:03:42;7.63;;;3.77;;
2400;SDS011;1211;43.200;27.914;2022-08-02T04:06:09;4.50;;;2.70;;
2400;SDS011;1211;43.200;27.914;2022-08-02T04:08:36;2.50;;;2.30;;
2400;SDS011;1211;43.200;27.914;2022-08-02T04:11:03;4.40;;;2.50;;
2400;SDS011;1211;43.200;27.914;2022-08-02T04:13:49;3.07;;;2.77;;
2400;SDS011;1211;43.200;27.914;2022-08-02T04:16:17;14.53;;;2.53;;
2400;SDS011;1211;43.200;27.914;2022-08-02T04:18:49;4.50;;;4.10;;
2400;SDS011;1211;43.200;27.914;2022-08-02T04:21:19;3.53;;;3.23;;
2400;SDS011;1211;43.200;27.914;2022-08-02T04:23:47;3.30;;;1.97;;
2400;SDS011;1211;43.200;27.914;2022-08-02T04:26:16;2.73;;;2.53;;
2400;SDS011;1211;43.200;27.914;2022-08-02T04:28:44;2.53;;;2.33;;
2400;SDS011;1211;43.200;27.914;2022-08-02T04:31:14;2.87;;;2.67;;
2400;SDS011;1211;43.200;27.914;2022-08-02T04:33:43;3.00;;;2.70;;
2400;SDS011;1211;43.200;27.914;2022-08-02T04:36:11;3.70;;;2.80;;
2400;SDS011;1211;43.200;27.914;2022-08-02T04:38:39;3.67;;;3.37;;
2400;SDS011;1211;43.200;27.914;2022-08-02T04:41:07;3.10;;;2.47;;
2400;SDS011;1211;43.200;27.914;2022-08-02T04:43:33;2.00;;;1.90;;
2400;SDS011;1211;43.200;27.914;2022-08-02T04:46:00;2.50;;;2.20;;
2400;SDS011;1211;43.200;27.914;2022-08-02T04:48:30;2.37;;;2.23;;
2400;SDS011;1211;43.200;27.914;2022-08-02T04:50:57;3.03;;;2.80;;
2400;SDS011;1211;43.200;27.914;2022-08-02T04:53:24;8.03;;;2.43;;
2400;SDS011;1211;43.200;27.914;2022-08-02T04:55:51;2.27;;;2.07;;
2400;SDS011;1211;43.200;27.914;2022-08-02T04:58:19;3.30;;;2.13;;
2400;SDS011;1211;43.200;27.914;2022-08-02T05:00:45;3.00;;;2.70;;
2400;SDS011;1211;43.200;27.914;2022-08-02T05:03:12;1.50;;;1.40;;
2400;SDS011;1211;43.200;27.914;2022-08-02T05:05:41;2.07;;;1.97;;
2400;SDS011;1211;43.200;27.914;2022-08-02T05:08:08;1.90;;;1.80;;
2400;SDS011;1211;43.200;27.914;2022-08-02T05:10:35;2.13;;;2.03;;
2400;SDS011;1211;43.200;27.914;2022-08-02T05:13:02;2.83;;;2.63;;
2400;SDS011;1211;43.200;27.914;2022-08-02T05:15:30;4.10;;;3.80;;
2400;SDS011;1211;43.200;27.914;2022-08-02T05:17:57;1.97;;;1.87;;
2400;SDS011;1211;43.200;27.914;2022-08-02T05:20:24;1.90;;;1.80;;
2400;SDS011;1211;43.200;27.914;2022-08-02T05:22:52;3.97;;;3.50;;
2400;SDS011;1211;43.200;27.914;2022-08-02T05:25:19;1.97;;;1.77;;
2400;SDS011;1211;43.200;27.914;2022-08-02T05:27:46;2.53;;;2.33;;
2400;SDS011;1211;43.200;27.914;2022-08-02T05:30:13;2.13;;;1.93;;
2400;SDS011;1211;43.200;27.914;2022-08-02T05:32:44;3.73;;;3.43;;
2400;SDS011;1211;43.200;27.914;2022-08-02T05:35:12;2.13;;;1.93;;
2400;SDS011;1211;43.200;27.914;2022-08-02T05:37:42;2.97;;;2.73;;
2400;SDS011;1211;43.200;27.914;2022-08-02T05:40:11;8.00;;;3.00;;
2400;SDS011;1211;43.200;27.914;2022-08-02T05:42:38;3.30;;;3.00;;
2400;SDS011;1211;43.200;27.914;2022-08-02T05:45:05;4.10;;;3.70;;
2400;SDS011;1211;43.200;27.914;2022-08-02T05:47:33;1.30;;;1.20;;
2400;SDS011;1211;43.200;27.914;2022-08-02T05:50:00;7.53;;;3.50;;
2400;SDS011;1211;43.200;27.914;2022-08-02T05:52:30;3.30;;;2.80;;
2400;SDS011;1211;43.200;27.914;2022-08-02T05:55:07;2.63;;;2.43;;
2400;SDS011;1211;43.200;27.914;2022-08-02T05:57:41;6.13;;;3.33;;
2400;SDS011;1211;43.200;27.914;2022-08-02T06:00:15;4.27;;;3.90;;
2400;SDS011;1211;43.200;27.914;2022-08-02T06:02:52;3.50;;;3.30;;
2400;SDS011;1211;43.200;27.914;2022-08-02T06:05:30;4.80;;;3.97;;
2400;SDS011;1211;43.200;27.914;2022-08-02T06:08:00;5.93;;;4.90;;
2400;SDS011;1211;43.200;27.914;2022-08-02T06:10:28;3.10;;;2.90;;
2400;SDS011;1211;43.200;27.914;2022-08-02T06:13:03;4.23;;;4.03;;
2400;SDS011;1211;43.200;27.914;2022-08-02T06:15:33;3.50;;;3.30;;
2400;SDS011;1211;43.200;27.914;2022-08-02T06:18:01;5.20;;;4.90;;
2400;SDS011;1211;43.200;27.914;2022-08-02T06:20:28;4.00;;;3.80;;
2400;SDS011;1211;43.200;27.914;2022-08-02T06:23:00;3.60;;;3.40;;
2400;SDS011;1211;43.200;27.914;2022-08-02T06:25:29;8.93;;;8.37;;
2400;SDS011;1211;43.200;27.914;2022-08-02T06:27:56;6.40;;;5.80;;
2400;SDS011;1211;43.200;27.914;2022-08-02T06:30:26;7.77;;;7.17;;
2400;SDS011;1211;43.200;27.914;2022-08-02T06:32:54;6.27;;;5.77;;
2400;SDS011;1211;43.200;27.914;2022-08-02T06:35:22;5.07;;;4.87;;
2400;SDS011;1211;43.200;27.914;2022-08-02T06:37:58;5.57;;;5.27;;
2400;SDS011;1211;43.200;27.914;2022-08-02T06:40:26;4.40;;;4.20;;
2400;SDS011;1211;43.200;27.914;2022-08-02T06:42:58;5.83;;;5.43;;
2400;SDS011;1211;43.200;27.914;2022-08-02T06:45:33;5.47;;;5.13;;
2400;SDS011;1211;43.200;27.914;2022-08-02T06:48:00;5.97;;;5.57;;
2400;SDS011;1211;43.200;27.914;2022-08-02T06:50:28;5.63;;;5.17;;
2400;SDS011;1211;43.200;27.914;2022-08-02T06:52:56;5.40;;;5.10;;
2400;SDS011;1211;43.200;27.914;2022-08-02T06:55:22;6.53;;;6.10;;
2400;SDS011;1211;43.200;27.914;2022-08-02T06:57:49;6.07;;;5.67;;
2400;SDS011;1211;43.200;27.914;2022-08-02T07:00:16;7.57;;;7.07;;
2400;SDS011;1211;43.200;27.914;2022-08-02T07:02:45;5.97;;;5.67;;
2400;SDS011;1211;43.200;27.914;2022-08-02T07:05:11;7.93;;;7.33;;
2400;SDS011;1211;43.200;27.914;2022-08-02T07:07:38;6.00;;;5.50;;
2400;SDS011;1211;43.200;27.914;2022-08-02T07:10:05;7.00;;;6.50;;
2400;SDS011;1211;43.200;27.914;2022-08-02T07:12:33;8.03;;;7.33;;
2400;SDS011;1211;43.200;27.914;2022-08-02T07:15:01;8.73;;;8.27;;
2400;SDS011;1211;43.200;27.914;2022-08-02T07:17:30;11.70;;;8.07;;
2400;SDS011;1211;43.200;27.914;2022-08-02T07:19:59;6.20;;;5.90;;
2400;SDS011;1211;43.200;27.914;2022-08-02T07:22:26;7.77;;;7.07;;
2400;SDS011;1211;43.200;27.914;2022-08-02T07:24:54;7.40;;;7.00;;
2400;SDS011;1211;43.200;27.914;2022-08-02T07:27:22;8.07;;;7.60;;
2400;SDS011;1211;43.200;27.914;2022-08-02T07:29:49;10.70;;;7.57;;
2400;SDS011;1211;43.200;27.914;2022-08-02T07:32:17;7.00;;;6.60;;
2400;SDS011;1211;43.200;27.914;2022-08-02T07:34:45;7.17;;;6.67;;
2400;SDS011;1211;43.200;27.914;2022-08-02T07:37:14;9.03;;;8.23;;
2400;SDS011;1211;43.200;27.914;2022-08-02T07:39:41;8.30;;;7.70;;
2400;SDS011;1211;43.200;27.914;2022-08-02T07:42:07;8.97;;;8.27;;
2400;SDS011;1211;43.200;27.914;2022-08-02T07:44:34;7.10;;;6.70;;
2400;SDS011;1211;43.200;27.914;2022-08-02T07:47:01;8.47;;;7.83;;
2400;SDS011;1211;43.200;27.914;2022-08-02T07:49:29;12.07;;;8.10;;
2400;SDS011;1211;43.200;27.914;2022-08-02T07:51:56;7.83;;;7.23;;
2400;SDS011;1211;43.200;27.914;2022-08-02T07:54:25;9.27;;;8.47;;
2400;SDS011;1211;43.200;27.914;2022-08-02T07:56:51;7.40;;;6.90;;
2400;SDS011;1211;43.200;27.914;2022-08-02T07:59:18;8.80;;;8.03;;
2400;SDS011;1211;43.200;27.914;2022-08-02T08:01:46;6.50;;;6.10;;
2400;SDS011;1211;43.200;27.914;2022-08-02T08:04:13;7.67;;;7.27;;
2400;SDS011;1211;43.200;27.914;2022-08-02T08:06:40;6.93;;;6.63;;
2400;SDS011;1211;43.200;27.914;2022-08-02T08:09:07;6.90;;;6.50;;
2400;SDS011;1211;43.200;27.914;2022-08-02T08:11:35;8.40;;;7.60;;
2400;SDS011;1211;43.200;27.914;2022-08-02T08:14:03;8.90;;;6.37;;
2400;SDS011;1211;43.200;27.914;2022-08-02T08:16:30;7.73;;;7.33;;
2400;SDS011;1211;43.200;27.914;2022-08-02T08:18:57;7.83;;;7.23;;
2400;SDS011;1211;43.200;27.914;2022-08-02T08:21:24;6.20;;;5.90;;
2400;SDS011;1211;43.200;27.914;2022-08-02T08:23:51;5.90;;;5.60;;
2400;SDS011;1211;43.200;27.914;2022-08-02T08:26:17;5.80;;;5.50;;
2400;SDS011;1211;43.200;27.914;2022-08-02T08:28:46;7.03;;;6.63;;
2400;SDS011;1211;43.200;27.914;2022-08-02T08:31:13;6.97;;;6.47;;
2400;SDS011;1211;43.200;27.914;2022-08-02T08:33:39;7.30;;;6.90;;
2400;SDS011;1211;43.200;27.914;2022-08-02T08:36:06;6.80;;;6.30;;
2400;SDS011;1211;43.200;27.914;2022-08-02T08:38:33;5.63;;;5.33;;
2400;SDS011;1211;43.200;27.914;2022-08-02T08:41:00;5.33;;;5.03;;
2400;SDS011;1211;43.200;27.914;2022-08-02T08:43:27;7.00;;;6.50;;
2400;SDS011;1211;43.200;27.914;2022-08-02T08:45:55;6.97;;;6.47;;
2400;SDS011;1211;43.200;27.914;2022-08-02T08:48:22;6.17;;;5.87;;
2400;SDS011;1211;43.200;27.914;2022-08-02T08:50:52;6.87;;;6.47;;
2400;SDS011;1211;43.200;27.914;2022-08-02T08:53:23;6.63;;;6.23;;
2400;SDS011;1211;43.200;27.914;2022-08-02T08:55:52;7.07;;;6.67;;
2400;SDS011;1211;43.200;27.914;2022-08-02T08:58:20;6.90;;;6.40;;
2400;SDS011;1211;43.200;27.914;2022-08-02T09:00:47;8.23;;;7.73;;
2400;SDS011;1211;43.200;27.914;2022-08-02T09:03:16;5.57;;;5.27;;
2400;SDS011;1211;43.200;27.914;2022-08-02T09:05:43;7.30;;;6.70;;
2400;SDS011;1211;43.200;27.914;2022-08-02T09:08:11;6.80;;;6.30;;
2400;SDS011;1211;43.200;27.914;2022-08-02T09:10:39;14.00;;;9.90;;
2400;SDS011;1211;43.200;27.914;2022-08-02T09:13:12;6.50;;;6.10;;
2400;SDS011;1211;43.200;27.914;2022-08-02T09:15:41;8.30;;;7.60;;
2400;SDS011;1211;43.200;27.914;2022-08-02T09:18:10;8.47;;;7.80;;
2400;SDS011;1211;43.200;27.914;2022-08-02T09:20:51;5.70;;;5.30;;
2400;SDS011;1211;43.200;27.914;2022-08-02T09:23:21;8.17;;;7.40;;
2400;SDS011;1211;43.200;27.914;2022-08-02T09:25:55;8.03;;;7.53;;
2400;SDS011;1211;43.200;27.914;2022-08-02T09:28:27;6.97;;;6.57;;
2400;SDS011;1211;43.200;27.914;2022-08-02T09:30:55;5.73;;;5.33;;
2400;SDS011;1211;43.200;27.914;2022-08-02T09:33:29;6.20;;;5.70;;
2400;SDS011;1211;43.200;27.914;2022-08-02T09:36:02;7.07;;;6.57;;
2400;SDS011;1211;43.200;27.914;2022-08-02T09:38:30;6.53;;;6.13;;
2400;SDS011;1211;43.200;27.914;2022-08-02T09:40:58;9.13;;;8.20;;
2400;SDS011;1211;43.200;27.914;2022-08-02T09:43:36;7.37;;;6.67;;
2400;SDS011;1211;43.200;27.914;2022-08-02T09:46:13;6.00;;;5.60;;
2400;SDS011;1211;43.200;27.914;2022-08-02T09:48:45;7.20;;;6.70;;
2400;SDS011;1211;43.200;27.914;2022-08-02T09:51:18;7.37;;;6.77;;
2400;SDS011;1211;43.200;27.914;2022-08-02T09:53:47;4.93;;;4.63;;
2400;SDS011;1211;43.200;27.914;2022-08-02T09:56:18;6.97;;;6.57;;
2400;SDS011;1211;43.200;27.914;2022-08-02T09:58:46;6.40;;;6.00;;
2400;SDS011;1211;43.200;27.914;2022-08-02T10:01:14;7.60;;;5.80;;
2400;SDS011;1211;43.200;27.914;2022-08-02T10:03:54;6.70;;;5.80;;
2400;SDS011;1211;43.200;27.914;2022-08-02T10:06:24;4.50;;;4.27;;
2400;SDS011;1211;43.200;27.914;2022-08-02T10:08:51;5.70;;;5.30;;
2400;SDS011;1211;43.200;27.914;2022-08-02T10:11:19;6.27;;;5.63;;
2400;SDS011;1211;43.200;27.914;2022-08-02T10:13:46;5.40;;;4.70;;
2400;SDS011;1211;43.200;27.914;2022-08-02T10:16:14;4.67;;;4.37;;
2400;SDS011;1211;43.200;27.914;2022-08-02T10:18:44;5.20;;;4.90;;
2400;SDS011;1211;43.200;27.914;2022-08-02T10:21:12;5.10;;;4.80;;
2400;SDS011;1211;43.200;27.914;2022-08-02T10:23:45;5.70;;;5.30;;
2400;SDS011;1211;43.200;27.914;2022-08-02T10:26:15;4.80;;;4.50;;
2400;SDS011;1211;43.200;27.914;2022-08-02T10:28:46;6.30;;;5.80;;
2400;SDS011;1211;43.200;27.914;2022-08-02T10:31:16;5.60;;;5.30;;
2400;SDS011;1211;43.200;27.914;2022-08-02T10:33:46;5.03;;;4.73;;
2400;SDS011;1211;43.200;27.914;2022-08-02T10:36:14;5.20;;;4.90;;
2400;SDS011;1211;43.200;27.914;2022-08-02T10:38:44;5.97;;;5.37;;
2400;SDS011;1211;43.200;27.914;2022-08-02T10:41:12;5.10;;;4.80;;
2400;SDS011;1211;43.200;27.914;2022-08-02T10:43:39;5.87;;;5.47;;
2400;SDS011;1211;43.200;27.914;2022-08-02T10:46:28;5.37;;;4.93;;
2400;SDS011;1211;43.200;27.914;2022-08-02T10:49:01;5.87;;;5.50;;
2400;SDS011;1211;43.200;27.914;2022-08-02T10:54:25;7.27;;;6.67;;
2400;SDS011;1211;43.200;27.914;2022-08-02T10:56:54;5.50;;;5.20;;
2400;SDS011;1211;43.200;27.914;2022-08-02T10:59:23;5.77;;;5.37;;
2400;SDS011;1211;43.200;27.914;2022-08-02T11:01:51;5.47;;;5.07;;
2400;SDS011;1211;43.200;27.914;2022-08-02T11:04:25;6.20;;;5.80;;
2400;SDS011;1211;43.200;27.914;2022-08-02T11:07:07;5.90;;;5.50;;
2400;SDS011;1211;43.200;27.914;2022-08-02T11:09:39;6.37;;;5.77;;
2400;SDS011;1211;43.200;27.914;2022-08-02T11:12:07;6.77;;;6.27;;
2400;SDS011;1211;43.200;27.914;2022-08-02T11:14:36;6.73;;;6.30;;
2400;SDS011;1211;43.200;27.914;2022-08-02T11:17:08;6.53;;;6.10;;
2400;SDS011;1211;43.200;27.914;2022-08-02T11:22:44;5.60;;;5.30;;
2400;SDS011;1211;43.200;27.914;2022-08-02T11:25:32;6.70;;;6.10;;
2400;SDS011;1211;43.200;27.914;2022-08-02T11:28:06;5.63;;;5.33;;
2400;SDS011;1211;43.200;27.914;2022-08-02T11:30:35;7.20;;;6.57;;
2400;SDS011;1211;43.200;27.914;2022-08-02T11:33:03;6.17;;;5.80;;
2400;SDS011;1211;43.200;27.914;2022-08-02T11:35:31;5.63;;;5.33;;
2400;SDS011;1211;43.200;27.914;2022-08-02T11:38:12;5.20;;;4.90;;
2400;SDS011;1211;43.200;27.914;2022-08-02T11:40:42;6.33;;;5.83;;
2400;SDS011;1211;43.200;27.914;2022-08-02T11:43:17;6.37;;;5.97;;
2400;SDS011;1211;43.200;27.914;2022-08-02T11:45:45;5.20;;;4.90;;
2400;SDS011;1211;43.200;27.914;2022-08-02T11:48:12;5.30;;;5.00;;
2400;SDS011;1211;43.200;27.914;2022-08-02T11:50:39;7.10;;;6.50;;
2400;SDS011;1211;43.200;27.914;2022-08-02T11:53:13;5.10;;;4.70;;
2400;SDS011;1211;43.200;27.914;2022-08-02T11:55:42;6.17;;;5.67;;
2400;SDS011;1211;43.200;27.914;2022-08-02T11:58:09;6.60;;;6.20;;
2400;SDS011;1211;43.200;27.914;2022-08-02T12:00:36;6.80;;;6.40;;
2400;SDS011;1211;43.200;27.914;2022-08-02T12:03:05;6.20;;;5.80;;
2400;SDS011;1211;43.200;27.914;2022-08-02T12:05:33;4.80;;;4.53;;
2400;SDS011;1211;43.200;27.914;2022-08-02T12:08:04;6.97;;;6.47;;
2400;SDS011;1211;43.200;27.914;2022-08-02T12:10:32;6.03;;;5.63;;
2400;SDS011;1211;43.200;27.914;2022-08-02T12:13:00;6.63;;;6.13;;
2400;SDS011;1211;43.200;27.914;2022-08-02T12:15:28;6.47;;;6.07;;
2400;SDS011;1211;43.200;27.914;2022-08-02T12:17:56;5.50;;;5.00;;
2400;SDS011;1211;43.200;27.914;2022-08-02T12:20:40;6.37;;;5.97;;
2400;SDS011;1211;43.200;27.914;2022-08-02T12:23:07;6.83;;;6.33;;
2400;SDS011;1211;43.200;27.914;2022-08-02T12:25:34;7.30;;;6.80;;
2400;SDS011;1211;43.200;27.914;2022-08-02T12:28:15;5.87;;;5.57;;
2400;SDS011;1211;43.200;27.914;2022-08-02T12:30:48;6.60;;;6.00;;
2400;SDS011;1211;43.200;27.914;2022-08-02T12:33:17;6.50;;;6.20;;
2400;SDS011;1211;43.200;27.914;2022-08-02T12:35:44;5.83;;;5.53;;
2400;SDS011;1211;43.200;27.914;2022-08-02T12:38:11;6.83;;;5.00;;
2400;SDS011;1211;43.200;27.914;2022-08-02T12:40:38;6.30;;;5.90;;
2400;SDS011;1211;43.200;27.914;2022-08-02T12:43:07;5.90;;;5.50;;
2400;SDS011;1211;43.200;27.914;2022-08-02T12:45:47;5.00;;;4.70;;
2400;SDS011;1211;43.200;27.914;2022-08-02T12:48:28;5.93;;;5.63;;
2400;SDS011;1211;43.200;27.914;2022-08-02T12:50:56;5.63;;;5.23;;
2400;SDS011;1211;43.200;27.914;2022-08-02T12:53:25;5.40;;;5.10;;
2400;SDS011;1211;43.200;27.914;2022-08-02T12:55:58;6.10;;;5.70;;
2400;SDS011;1211;43.200;27.914;2022-08-02T12:58:26;8.30;;;6.37;;
2400;SDS011;1211;43.200;27.914;2022-08-02T13:00:55;5.17;;;4.87;;
2400;SDS011;1211;43.200;27.914;2022-08-02T13:03:23;5.90;;;5.50;;
2400;SDS011;1211;43.200;27.914;2022-08-02T13:05:51;6.80;;;6.30;;
2400;SDS011;1211;43.200;27.914;2022-08-02T13:08:18;5.40;;;5.00;;
2400;SDS011;1211;43.200;27.914;2022-08-02T13:10:45;5.13;;;4.83;;
2400;SDS011;1211;43.200;27.914;2022-08-02T13:13:11;5.70;;;5.40;;
2400;SDS011;1211;43.200;27.914;2022-08-02T13:15:38;6.00;;;5.60;;
2400;SDS011;1211;43.200;27.914;2022-08-02T13:18:07;6.07;;;5.67;;
2400;SDS011;1211;43.200;27.914;2022-08-02T13:20:35;7.70;;;7.20;;
2400;SDS011;1211;43.200;27.914;2022-08-02T13:23:02;5.03;;;4.80;;
2400;SDS011;1211;43.200;27.914;2022-08-02T13:25:28;7.20;;;6.70;;
2400;SDS011;1211;43.200;27.914;2022-08-02T13:27:55;7.33;;;6.80;;
2400;SDS011;1211;43.200;27.914;2022-08-02T13:30:22;6.97;;;6.47;;
2400;SDS011;1211;43.200;27.914;2022-08-02T13:32:49;5.30;;;5.00;;
2400;SDS011;1211;43.200;27.914;2022-08-02T13:35:17;6.23;;;5.83;;
2400;SDS011;1211;43.200;27.914;2022-08-02T13:37:44;4.60;;;4.40;;
2400;SDS011;1211;43.200;27.914;2022-08-02T13:40:12;5.10;;;4.80;;
2400;SDS011;1211;43.200;27.914;2022-08-02T13:42:39;4.90;;;4.70;;
2400;SDS011;1211;43.200;27.914;2022-08-02T13:45:06;5.17;;;4.87;;
2400;SDS011;1211;43.200;27.914;2022-08-02T13:47:33;5.67;;;5.37;;
2400;SDS011;1211;43.200;27.914;2022-08-02T13:50:03;6.40;;;6.00;;
2400;SDS011;1211;43.200;27.914;2022-08-02T13:52:32;6.30;;;5.90;;
2400;SDS011;1211;43.200;27.914;2022-08-02T13:54:59;5.77;;;5.47;;
2400;SDS011;1211;43.200;27.914;2022-08-02T13:57:26;5.17;;;4.87;;
2400;SDS011;1211;43.200;27.914;2022-08-02T13:59:52;5.20;;;4.90;;
2400;SDS011;1211;43.200;27.914;2022-08-02T14:02:19;4.60;;;4.40;;
2400;SDS011;1211;43.200;27.914;2022-08-02T14:04:46;5.97;;;5.57;;
2400;SDS011;1211;43.200;27.914;2022-08-02T14:07:13;4.60;;;4.40;;
2400;SDS011;1211;43.200;27.914;2022-08-02T14:09:42;4.90;;;4.60;;
2400;SDS011;1211;43.200;27.914;2022-08-02T14:12:09;6.13;;;5.73;;
2400;SDS011;1211;43.200;27.914;2022-08-02T14:14:37;4.73;;;4.43;;
2400;SDS011;1211;43.200;27.914;2022-08-02T14:17:03;5.77;;;5.37;;
2400;SDS011;1211;43.200;27.914;2022-08-02T14:19:30;4.80;;;4.50;;
2400;SDS011;1211;43.200;27.914;2022-08-02T14:21:57;5.53;;;5.23;;
2400;SDS011;1211;43.200;27.914;2022-08-02T14:24:24;5.53;;;5.23;;
2400;SDS011;1211;43.200;27.914;2022-08-02T14:26:52;6.37;;;5.80;;
2400;SDS011;1211;43.200;27.914;2022-08-02T14:29:19;4.80;;;4.60;;
2400;SDS011;1211;43.200;27.914;2022-08-02T14:31:46;5.60;;;5.30;;
2400;SDS011;1211;43.200;27.914;2022-08-02T14:34:13;7.90;;;7.30;;
2400;SDS011;1211;43.200;27.914;2022-08-02T14:36:40;6.90;;;6.43;;
2400;SDS011;1211;43.200;27.914;2022-08-02T14:39:07;7.63;;;7.13;;
2400;SDS011;1211;43.200;27.914;2022-08-02T14:41:36;6.77;;;6.37;;
2400;SDS011;1211;43.200;27.914;2022-08-02T14:44:04;8.47;;;7.77;;
2400;SDS011;1211;43.200;27.914;2022-08-02T14:46:32;6.83;;;6.50;;
2400;SDS011;1211;43.200;27.914;2022-08-02T14:49:01;7.30;;;6.90;;
2400;SDS011;1211;43.200;27.914;2022-08-02T14:51:31;5.80;;;5.50;;
2400;SDS011;1211;43.200;27.914;2022-08-02T14:53:59;9.30;;;6.97;;
2400;SDS011;1211;43.200;27.914;2022-08-02T14:56:27;7.03;;;6.33;;
2400;SDS011;1211;43.200;27.914;2022-08-02T14:58:53;6.53;;;5.80;;
2400;SDS011;1211;43.200;27.914;2022-08-02T15:01:22;7.30;;;6.63;;
2400;SDS011;1211;43.200;27.914;2022-08-02T15:03:49;4.00;;;3.70;;
2400;SDS011;1211;43.200;27.914;2022-08-02T15:06:16;2.87;;;2.67;;
2400;SDS011;1211;43.200;27.914;2022-08-02T15:08:43;3.17;;;2.97;;
2400;SDS011;1211;43.200;27.914;2022-08-02T15:11:10;3.63;;;3.33;;
2400;SDS011;1211;43.200;27.914;2022-08-02T15:13:37;3.60;;;3.40;;
2400;SDS011;1211;43.200;27.914;2022-08-02T15:16:04;6.20;;;5.70;;
2400;SDS011;1211;43.200;27.914;2022-08-02T15:18:32;2.93;;;2.73;;
2400;SDS011;1211;43.200;27.914;2022-08-02T15:20:59;5.90;;;5.30;;